createdAt,value
2022-12-19T00:01:36.477Z,20.75
2022-12-19T00:04:07.774Z,20.23
2022-12-19T00:06:36.065Z,20.77
2022-12-19T00:09:03.292Z,20.88
2022-12-19T00:11:30.839Z,19.35
2022-12-19T00:13:58.357Z,18.58
2022-12-19T00:16:29.900Z,20.30
2022-12-19T00:18:59.285Z,18.87
2022-12-19T00:21:34.008Z,19.88
2022-12-19T00:24:03.581Z,19.08
2022-12-19T00:26:37.284Z,18.98
2022-12-19T00:29:12.548Z,18.13
2022-12-19T00:34:09.180Z,20.17
2022-12-19T00:36:36.207Z,21.05
2022-12-19T00:41:51.457Z,19.58
2022-12-19T00:46:50.240Z,20.02
2022-12-19T00:49:20.089Z,18.60
2022-12-19T00:54:33.555Z,20.90
2022-12-19T00:57:00.584Z,18.95
2022-12-19T00:59:27.498Z,19.15
2022-12-19T01:01:54.535Z,18.90
2022-12-19T01:04:29.574Z,19.50
2022-12-19T01:04:43.215Z,0
2022-12-19T01:09:44.178Z,20.70
2022-12-19T01:15:04.424Z,17.15
2022-12-19T01:20:29.117Z,18.98
2022-12-19T01:22:57.283Z,19.02
2022-12-19T01:25:26.557Z,18.30
2022-12-19T01:27:54.995Z,19.08
2022-12-19T01:30:21.794Z,17.80
2022-12-19T01:32:49.820Z,17.75
2022-12-19T01:35:21.327Z,19.15
2022-12-19T01:37:49.322Z,19.60
2022-12-19T01:39:44.698Z,0
2022-12-19T01:40:16.064Z,19.80
2022-12-19T01:42:42.838Z,17.98
2022-12-19T01:45:13.327Z,17.50
2022-12-19T01:47:53.505Z,17.52
2022-12-19T01:49:26.335Z,0
2022-12-19T01:50:39.061Z,18.58
2022-12-19T01:53:11.211Z,18.27
2022-12-19T01:55:41.344Z,19.63
2022-12-19T02:00:56.221Z,19.17
2022-12-19T02:06:17.437Z,20.15
2022-12-19T02:09:57.764Z,0
2022-12-19T02:11:14.117Z,19.02
2022-12-19T02:13:41.438Z,18.92
2022-12-19T02:16:28.045Z,16.70
2022-12-19T02:22:29.629Z,18.55
2022-12-19T02:25:11.205Z,17.83
2022-12-19T02:27:56.573Z,18.77
2022-12-19T02:30:44.336Z,18.70
2022-12-19T02:33:40.956Z,18.25
2022-12-19T02:36:46.745Z,17.80
2022-12-19T02:38:06.341Z,0
2022-12-19T02:39:33.912Z,16.50
2022-12-19T02:42:02.549Z,18.13
2022-12-19T02:44:34.060Z,18.50
2022-12-19T02:47:03.684Z,18.00
2022-12-19T02:49:32.788Z,19.40
2022-12-19T02:52:29.328Z,18.37
2022-12-19T02:55:00.897Z,17.77
2022-12-19T02:57:40.998Z,18.40
2022-12-19T03:00:07.971Z,17.15
2022-12-19T03:02:53.201Z,16.13
2022-12-19T03:05:32.481Z,17.52
2022-12-19T03:08:09.149Z,18.13
2022-12-19T03:10:45.467Z,17.65
2022-12-19T03:12:18.014Z,0
2022-12-19T03:15:50.368Z,17.98
2022-12-19T03:18:17.786Z,19.67
2022-12-19T03:20:56.449Z,16.80
2022-12-19T03:23:23.288Z,18.13
2022-12-19T03:25:53.838Z,18.38
2022-12-19T03:28:38.554Z,16.90
2022-12-19T03:31:06.945Z,20.00
2022-12-19T03:33:34.834Z,17.95
2022-12-19T03:36:06.231Z,18.95
2022-12-19T03:38:35.537Z,17.05
2022-12-19T03:41:04.156Z,21.17
2022-12-19T03:43:32.561Z,19.07
2022-12-19T03:48:56.354Z,18.02
2022-12-19T03:52:10.498Z,16.70
2022-12-19T03:54:42.820Z,17.40
2022-12-19T03:57:21.086Z,19.33
2022-12-19T04:00:17.509Z,18.75
2022-12-19T04:05:47.609Z,18.25
2022-12-19T04:09:26.039Z,0
2022-12-19T04:11:09.870Z,18.15
2022-12-19T04:22:55.728Z,19.83
2022-12-19T04:25:39.293Z,18.70
2022-12-19T04:31:19.049Z,18.70
2022-12-19T04:33:45.879Z,17.88
2022-12-19T04:36:13.098Z,17.87
2022-12-19T04:38:40.011Z,18.33
2022-12-19T04:43:53.636Z,18.85
2022-12-19T04:46:20.420Z,18.40
2022-12-19T04:48:47.274Z,18.45
2022-12-19T04:51:15.637Z,19.90
2022-12-19T04:53:42.355Z,19.00
2022-12-19T04:56:10.390Z,18.80
2022-12-19T04:58:37.128Z,18.23
2022-12-19T05:01:06.711Z,19.08
2022-12-19T05:03:34.084Z,19.00
2022-12-19T05:06:08.715Z,19.40
2022-12-19T05:11:23.661Z,17.83
2022-12-19T05:13:50.448Z,19.15
2022-12-19T05:16:17.775Z,19.80
2022-12-19T05:18:44.645Z,17.55
2022-12-19T05:21:11.530Z,16.65
2022-12-19T05:23:38.654Z,19.53
2022-12-19T05:26:06.737Z,18.95
2022-12-19T05:28:33.710Z,17.80
2022-12-19T05:30:55.343Z,0
2022-12-19T05:31:06.598Z,17.20
2022-12-19T05:33:33.962Z,17.17
2022-12-19T05:36:01.143Z,17.23
2022-12-19T05:41:17.917Z,16.85
2022-12-19T05:43:45.912Z,17.13
2022-12-19T05:46:12.870Z,16.30
2022-12-19T05:48:39.683Z,16.15
2022-12-19T05:53:53.400Z,17.00
2022-12-19T05:59:09.097Z,17.85
2022-12-19T06:01:35.986Z,17.38
2022-12-19T06:04:02.985Z,16.23
2022-12-19T06:06:29.798Z,16.48
2022-12-19T06:09:00.104Z,17.55
2022-12-19T06:11:27.364Z,17.85
2022-12-19T06:13:54.213Z,16.80
2022-12-19T06:16:22.404Z,18.35
2022-12-19T06:18:49.417Z,17.80
2022-12-19T06:21:21.440Z,17.15
2022-12-19T06:23:48.848Z,18.08
2022-12-19T06:26:19.981Z,18.00
2022-12-19T06:28:51.252Z,18.80
2022-12-19T06:34:06.293Z,16.83
2022-12-19T06:35:07.159Z,0
2022-12-19T06:36:33.067Z,16.40
2022-12-19T06:38:59.881Z,17.38
2022-12-19T06:44:16.202Z,17.77
2022-12-19T06:46:43.637Z,17.80
2022-12-19T06:49:11.173Z,16.45
2022-12-19T06:51:38.140Z,16.90
2022-12-19T06:54:05.241Z,16.70
2022-12-19T06:56:38.479Z,17.73
2022-12-19T06:59:06.373Z,18.15
2022-12-19T07:01:55.568Z,16.92
2022-12-19T07:04:30.819Z,16.50
2022-12-19T07:06:58.529Z,16.67
2022-12-19T07:09:26.632Z,16.70
2022-12-19T07:11:53.409Z,17.70
2022-12-19T07:14:20.185Z,17.95
2022-12-19T07:16:48.137Z,17.42
2022-12-19T07:19:15.186Z,17.83
2022-12-19T07:21:42.310Z,15.70
2022-12-19T07:24:09.955Z,18.48
2022-12-19T07:26:36.896Z,16.67
2022-12-19T07:29:04.706Z,17.17
2022-12-19T07:31:31.481Z,15.25
2022-12-19T07:33:58.508Z,15.65
2022-12-19T07:36:25.761Z,17.45
2022-12-19T07:38:52.546Z,16.25
2022-12-19T07:41:19.330Z,16.77
2022-12-19T07:43:46.080Z,17.05
2022-12-19T07:48:59.816Z,19.40
2022-12-19T07:51:27.151Z,19.90
2022-12-19T07:53:53.940Z,17.10
2022-12-19T07:56:20.803Z,17.10
2022-12-19T07:58:47.731Z,16.48
2022-12-19T08:01:14.924Z,17.52
2022-12-19T08:03:41.807Z,15.27
2022-12-19T08:06:08.741Z,17.00
2022-12-19T08:11:22.843Z,16.67
2022-12-19T08:16:55.696Z,17.70
2022-12-19T08:17:24.473Z,0
2022-12-19T08:19:27.321Z,17.58
2022-12-19T08:21:54.352Z,15.18
2022-12-19T08:24:21.062Z,18.75
2022-12-19T08:26:48.047Z,17.38
2022-12-19T08:29:14.850Z,19.45
2022-12-19T08:31:41.637Z,17.08
2022-12-19T08:34:08.421Z,16.10
2022-12-19T08:36:35.216Z,17.10
2022-12-19T08:39:01.990Z,17.98
2022-12-19T08:41:28.911Z,16.80
2022-12-19T08:43:56.359Z,15.07
2022-12-19T08:46:23.624Z,15.45
2022-12-19T08:48:50.949Z,16.70
2022-12-19T08:51:18.263Z,16.48
2022-12-19T08:53:45.971Z,16.35
2022-12-19T08:56:17.027Z,16.20
2022-12-19T08:58:44.804Z,17.20
2022-12-19T09:04:19.491Z,18.83
2022-12-19T09:06:08.084Z,0
2022-12-19T09:06:48.709Z,17.43
2022-12-19T09:09:15.629Z,18.77
2022-12-19T09:11:46.660Z,17.65
2022-12-19T09:13:00.643Z,0
2022-12-19T09:14:20.488Z,17.42
2022-12-19T09:16:48.645Z,16.85
2022-12-19T09:19:15.591Z,18.95
2022-12-19T09:21:42.610Z,16.90
2022-12-19T09:24:10.321Z,17.77
2022-12-19T09:26:37.424Z,17.20
2022-12-19T09:28:30.331Z,0
2022-12-19T09:29:06.724Z,16.38
2022-12-19T09:34:13.993Z,18.15
2022-12-19T09:36:40.777Z,17.52
2022-12-19T09:39:07.541Z,16.08
2022-12-19T09:41:42.149Z,19.83
2022-12-19T09:44:27.509Z,20.20
2022-12-19T09:46:51.365Z,0
2022-12-19T09:49:43.583Z,18.52
2022-12-19T09:51:13.474Z,0
2022-12-19T09:52:25.264Z,18.83
2022-12-19T09:55:01.090Z,20.00
2022-12-19T09:56:48.814Z,0
2022-12-19T09:57:30.691Z,19.60
2022-12-19T10:02:16.418Z,0
2022-12-19T10:02:57.244Z,19.42
2022-12-19T10:06:00.410Z,21.10
2022-12-19T10:08:13.099Z,0
2022-12-19T10:08:21.779Z,22.83
2022-12-19T10:12:37.820Z,23.33
2022-12-19T10:13:13.109Z,0
2022-12-19T10:17:52.113Z,25.10
2022-12-19T10:20:36.801Z,26.87
2022-12-19T10:22:21.156Z,0
2022-12-19T10:24:37.656Z,0
2022-12-19T10:26:14.219Z,23.70
2022-12-19T10:28:03.191Z,0
2022-12-19T10:29:03.689Z,23.95
2022-12-19T10:31:25.850Z,0
2022-12-19T10:31:53.694Z,25.43
2022-12-19T10:34:30.056Z,24.20
2022-12-19T10:37:25.332Z,23.17
2022-12-19T10:37:51.041Z,0
2022-12-19T10:40:15.633Z,27.45
2022-12-19T10:43:07.465Z,27.30
2022-12-19T10:43:45.685Z,0
2022-12-19T10:45:47.273Z,26.52
2022-12-19T10:48:21.273Z,27.23
2022-12-19T10:50:54.024Z,30.30
2022-12-19T10:54:36.245Z,0
2022-12-19T10:56:02.315Z,28.15
2022-12-19T10:58:35.094Z,27.83
2022-12-19T11:02:14.412Z,0
2022-12-19T11:04:13.855Z,28.85
2022-12-19T11:06:48.615Z,30.02
2022-12-19T11:09:30.238Z,29.70
2022-12-19T11:15:41.535Z,32.92
2022-12-19T11:19:34.597Z,30.13
2022-12-19T11:29:16.785Z,33.40
2022-12-19T11:29:34.917Z,30.80
2022-12-19T11:29:44.753Z,32.08
2022-12-19T11:30:46.255Z,28.63
2022-12-19T11:32:43.802Z,31.13
2022-12-19T11:35:24.166Z,32.17
2022-12-19T11:38:03.127Z,31.35
2022-12-19T11:40:48.385Z,31.52
2022-12-19T11:43:44.044Z,29.15
2022-12-19T11:43:49.101Z,0
2022-12-19T11:46:26.840Z,32.05
2022-12-19T11:53:03.303Z,31.02
2022-12-19T11:53:20.428Z,0
2022-12-19T11:55:57.286Z,29.50
2022-12-19T11:58:27.275Z,34.97
2022-12-19T12:01:09.207Z,33.65
2022-12-19T12:03:38.796Z,32.13
2022-12-19T12:12:42.239Z,34.42
2022-12-19T12:20:44.133Z,34.50
2022-12-19T12:25:27.641Z,35.40
2022-12-19T12:31:08.619Z,34.28
2022-12-19T12:31:19.470Z,33.70
2022-12-19T12:31:48.873Z,35.13
2022-12-19T12:31:49.081Z,32.58
2022-12-19T12:31:52.740Z,34.22
2022-12-19T12:35:56.481Z,33.90
2022-12-19T12:38:13.626Z,37.85
2022-12-19T12:42:41.594Z,33.85
2022-12-19T12:44:47.305Z,0
2022-12-19T12:45:26.899Z,37.50
2022-12-19T12:47:54.230Z,35.08
2022-12-19T12:50:26.089Z,38.30
2022-12-19T12:52:59.679Z,41.60
2022-12-19T12:59:03.169Z,46.45
2022-12-19T13:01:38.781Z,45.58
2022-12-19T13:04:11.397Z,47.63
2022-12-19T13:07:02.524Z,47.65
2022-12-19T13:09:35.868Z,51.83
2022-12-19T13:12:13.723Z,52.47
2022-12-19T13:17:33.383Z,49.63
2022-12-19T13:22:58.485Z,52.78
2022-12-19T13:25:49.722Z,47.38
2022-12-19T13:28:22.255Z,55.40
2022-12-19T13:31:18.588Z,46.67
2022-12-19T13:31:26.078Z,0
2022-12-19T13:33:51.884Z,47.05
2022-12-19T13:39:50.480Z,46.00
2022-12-19T13:40:01.049Z,49.60
2022-12-19T13:40:28.830Z,0
2022-12-19T13:42:27.633Z,52.92
2022-12-19T13:47:45.166Z,55.67
2022-12-19T13:50:32.064Z,50.88
2022-12-19T13:52:58.880Z,53.35
2022-12-19T13:58:58.214Z,48.72
2022-12-19T14:01:33.655Z,49.35
2022-12-19T14:04:08.221Z,50.55
2022-12-19T14:06:22.596Z,0
2022-12-19T14:06:39.799Z,47.60
2022-12-19T14:07:39.174Z,0
2022-12-19T14:11:24.973Z,52.25
2022-12-19T14:13:43.745Z,49.75
2022-12-19T14:14:28.788Z,0
2022-12-19T14:15:13.407Z,44.55
2022-12-19T14:16:48.133Z,0
2022-12-19T14:17:39.861Z,39.33
2022-12-19T14:22:07.078Z,45.17
2022-12-19T14:22:28.042Z,0
2022-12-19T14:23:06.581Z,43.58
2022-12-19T14:23:47.162Z,0
2022-12-19T14:28:20.291Z,43.13
2022-12-19T14:28:32.573Z,0
2022-12-19T14:28:54.565Z,46.13
2022-12-19T14:30:35.441Z,0
2022-12-19T14:31:23.760Z,44.50
2022-12-19T14:34:18.469Z,43.38
2022-12-19T14:34:35.382Z,0
2022-12-19T14:36:48.341Z,38.03
2022-12-19T14:39:27.852Z,38.67
2022-12-19T14:39:32.003Z,0
2022-12-19T14:41:12.259Z,0
2022-12-19T14:42:03.911Z,37.78
2022-12-19T14:52:51.829Z,37.58
2022-12-19T14:54:15.172Z,38.33
2022-12-19T14:54:23.671Z,38.83
2022-12-19T14:54:46.701Z,41.00
2022-12-19T14:56:58.795Z,0
2022-12-19T14:59:00.762Z,0
2022-12-19T15:01:12.816Z,0
2022-12-19T15:02:01.113Z,42.55
2022-12-19T15:02:38.163Z,0
2022-12-19T15:04:47.273Z,0
2022-12-19T15:04:48.204Z,44.90
2022-12-19T15:07:15.022Z,0
2022-12-19T15:07:27.512Z,44.33
2022-12-19T15:10:58.786Z,45.60
2022-12-19T15:13:30.132Z,0
2022-12-19T15:14:54.728Z,47.87
2022-12-19T15:16:25.791Z,47.47
2022-12-19T15:18:56.688Z,50.77
2022-12-19T15:24:10.452Z,49.70
2022-12-19T15:26:10.159Z,0
2022-12-19T15:26:47.658Z,48.78
2022-12-19T15:27:13.710Z,0
2022-12-19T15:29:19.858Z,46.67
2022-12-19T15:31:48.827Z,48.72
2022-12-19T15:34:38.095Z,45.83
2022-12-19T15:34:52.420Z,0
2022-12-19T15:37:14.206Z,45.85
2022-12-19T15:39:41.966Z,47.50
2022-12-19T15:44:08.413Z,0
2022-12-19T15:47:44.306Z,54.97
2022-12-19T15:50:19.269Z,59.95
2022-12-19T15:52:46.484Z,58.65
2022-12-19T15:55:15.444Z,61.60
2022-12-19T15:57:49.079Z,56.20
2022-12-19T16:00:22.269Z,61.92
2022-12-19T16:03:22.700Z,64.07
2022-12-19T16:05:37.088Z,62.00
2022-12-19T16:08:16.674Z,65.38
2022-12-19T16:10:45.695Z,66.10
2022-12-19T16:13:22.260Z,65.75
2022-12-19T16:15:49.452Z,66.27
2022-12-19T16:18:16.303Z,70.85
2022-12-19T16:23:30.205Z,71.97
2022-12-19T16:28:43.630Z,70.00
2022-12-19T16:34:02.559Z,72.80
2022-12-19T16:36:09.218Z,0
2022-12-19T16:36:29.301Z,69.95
2022-12-19T16:38:56.114Z,73.45
2022-12-19T16:41:24.960Z,76.75
2022-12-19T16:43:52.616Z,71.20
2022-12-19T16:46:21.851Z,77.45
2022-12-19T16:48:49.420Z,74.28
2022-12-19T16:51:18.396Z,71.17
2022-12-19T16:53:45.278Z,68.35
2022-12-19T16:59:18.457Z,74.18
2022-12-19T17:04:32.076Z,68.45
2022-12-19T17:06:58.873Z,69.03
2022-12-19T17:09:25.635Z,69.53
2022-12-19T17:11:56.698Z,70.70
2022-12-19T17:14:25.952Z,67.63
2022-12-19T17:16:54.795Z,70.17
2022-12-19T17:19:36.850Z,69.97
2022-12-19T17:22:04.309Z,69.93
2022-12-19T17:24:31.104Z,71.07
2022-12-19T17:26:57.888Z,70.05
2022-12-19T17:29:24.653Z,69.27
2022-12-19T17:31:51.474Z,71.20
2022-12-19T17:32:27.933Z,0
2022-12-19T17:34:28.101Z,68.95
2022-12-19T17:36:55.158Z,68.82
2022-12-19T17:39:24.694Z,68.47
2022-12-19T17:41:52.305Z,66.53
2022-12-19T17:44:19.523Z,64.53
2022-12-19T17:46:47.538Z,63.90
2022-12-19T17:49:16.571Z,61.85
2022-12-19T17:51:48.562Z,64.18
2022-12-19T17:54:15.346Z,64.55
2022-12-19T17:56:42.164Z,66.82
2022-12-19T17:59:08.923Z,61.90
2022-12-19T18:01:36.105Z,64.60
2022-12-19T18:04:03.275Z,59.75
2022-12-19T18:06:30.055Z,61.75
2022-12-19T18:08:56.810Z,65.72
2022-12-19T18:11:25.562Z,64.55
2022-12-19T18:16:40.656Z,60.33
2022-12-19T18:22:01.133Z,58.63
2022-12-19T18:27:14.885Z,60.80
2022-12-19T18:29:41.652Z,59.50
2022-12-19T18:32:17.830Z,60.50
2022-12-19T18:34:10.135Z,0
2022-12-19T18:34:44.663Z,58.80
2022-12-19T18:37:17.603Z,59.97
2022-12-19T18:39:44.352Z,59.00
2022-12-19T18:42:20.021Z,61.30
2022-12-19T18:44:46.792Z,57.60
2022-12-19T18:47:21.709Z,58.00
2022-12-19T18:49:51.377Z,55.50
2022-12-19T18:55:16.892Z,56.90
2022-12-19T18:57:44.223Z,51.60
2022-12-19T19:00:16.954Z,47.65
2022-12-19T19:02:58.927Z,52.15
2022-12-19T19:05:29.144Z,49.20
2022-12-19T19:07:56.790Z,51.05
2022-12-19T19:10:30.083Z,51.97
2022-12-19T19:12:58.451Z,52.83
2022-12-19T19:18:28.034Z,53.20
2022-12-19T19:21:00.757Z,52.05
2022-12-19T19:23:33.427Z,56.22
2022-12-19T19:26:00.340Z,52.05
2022-12-19T19:28:27.120Z,55.45
2022-12-19T19:30:54.859Z,55.53
2022-12-19T19:33:26.053Z,57.25
2022-12-19T19:35:56.616Z,47.58
2022-12-19T19:38:24.113Z,48.20
2022-12-19T19:43:37.757Z,53.30
2022-12-19T19:48:51.842Z,48.13
2022-12-19T19:51:18.956Z,48.20
2022-12-19T19:53:45.719Z,48.42
2022-12-19T19:56:12.558Z,48.08
2022-12-19T19:58:39.363Z,48.90
2022-12-19T20:01:11.720Z,47.40
2022-12-19T20:03:24.722Z,0
2022-12-19T20:03:40.197Z,47.63
2022-12-19T20:06:07.755Z,48.05
2022-12-19T20:08:39.764Z,45.95
2022-12-19T20:11:08.212Z,45.80
2022-12-19T20:13:35.269Z,39.05
2022-12-19T20:16:06.182Z,40.78
2022-12-19T20:18:33.259Z,45.60
2022-12-19T20:21:00.299Z,42.50
2022-12-19T20:23:27.155Z,41.33
2022-12-19T20:25:53.946Z,45.53
2022-12-19T20:28:20.812Z,42.15
2022-12-19T20:30:47.605Z,46.80
2022-12-19T20:33:14.461Z,45.53
2022-12-19T20:35:41.229Z,43.40
2022-12-19T20:38:07.987Z,42.03
2022-12-19T20:43:23.062Z,42.45
2022-12-19T20:48:37.625Z,39.58
2022-12-19T20:51:05.213Z,40.00
2022-12-19T20:53:33.513Z,40.90
2022-12-19T20:56:01.386Z,41.13
2022-12-19T21:01:19.628Z,40.03
2022-12-19T21:03:33.619Z,0
2022-12-19T21:03:47.014Z,41.10
2022-12-19T21:06:17.387Z,41.28
2022-12-19T21:08:44.189Z,42.22
2022-12-19T21:11:11.719Z,43.90
2022-12-19T21:13:39.507Z,42.75
2022-12-19T21:16:09.755Z,37.47
2022-12-19T21:18:39.399Z,42.90
2022-12-19T21:20:37.188Z,0
2022-12-19T21:21:08.398Z,36.60
2022-12-19T21:23:35.343Z,39.63
2022-12-19T21:26:04.625Z,34.13
2022-12-19T21:28:32.554Z,34.20
2022-12-19T21:31:04.887Z,39.13
2022-12-19T21:36:09.028Z,37.88
2022-12-19T21:37:46.337Z,0
2022-12-19T21:38:36.039Z,36.73
2022-12-19T21:41:04.275Z,38.22
2022-12-19T21:43:13.341Z,0
2022-12-19T21:43:32.478Z,34.75
2022-12-19T21:46:18.006Z,39.87
2022-12-19T21:48:49.734Z,42.17
2022-12-19T21:51:18.283Z,38.67
2022-12-19T21:56:32.140Z,36.72
2022-12-19T21:59:01.276Z,33.05
2022-12-19T22:01:29.378Z,37.33
2022-12-19T22:04:01.665Z,34.95
2022-12-19T22:06:30.716Z,34.40
2022-12-19T22:08:58.194Z,31.05
2022-12-19T22:11:25.179Z,34.28
2022-12-19T22:13:52.033Z,32.87
2022-12-19T22:16:18.925Z,30.13
2022-12-19T22:18:46.376Z,28.58
2022-12-19T22:21:14.604Z,30.40
2022-12-19T22:23:42.257Z,29.77
2022-12-19T22:26:15.822Z,31.23
2022-12-19T22:28:47.583Z,29.38
2022-12-19T22:31:22.068Z,29.67
2022-12-19T22:33:50.666Z,29.85
2022-12-19T22:36:25.753Z,29.70
2022-12-19T22:38:54.809Z,30.90
2022-12-19T22:44:15.541Z,30.88
2022-12-19T22:46:42.701Z,27.92
2022-12-19T22:49:12.154Z,27.17
2022-12-19T22:51:38.980Z,28.65
2022-12-19T22:56:53.177Z,26.90
2022-12-19T23:02:06.922Z,28.95
2022-12-19T23:07:22.226Z,29.70
2022-12-19T23:09:49.030Z,29.40
2022-12-19T23:12:15.804Z,29.83
2022-12-19T23:14:42.545Z,26.58
2022-12-19T23:17:09.389Z,30.55
2022-12-19T23:19:36.156Z,25.92
2022-12-19T23:22:03.029Z,27.33
2022-12-19T23:24:30.209Z,30.08
2022-12-19T23:26:56.989Z,27.92
2022-12-19T23:29:23.749Z,27.92
2022-12-19T23:31:50.578Z,25.85
2022-12-19T23:34:17.967Z,30.00
2022-12-19T23:37:10.398Z,28.42
2022-12-19T23:42:18.784Z,26.38
2022-12-19T23:47:12.225Z,27.88
2022-12-19T23:49:39.014Z,26.23
2022-12-19T23:52:05.774Z,27.42
2022-12-19T23:54:32.573Z,25.95
2022-12-19T23:56:59.333Z,24.90
2022-12-19T23:59:26.206Z,24.10
